Time;durP1;ratioP1;P1;durP2;ratioP2;P2;SDS_P1;SDS_P2;PMS_P1;PMS_P2;Temp;Humidity;BMP_temperature;BMP_pressure;BME280_temperature;BME280_humidity;BME280_pressure;Samples;Min_cycle;Max_cycle;Signal;HPM_P1;HPM_P2
2024/02/18 00:01:10;;;;;;;;;;;18.40;47.00;;;;;;1591366;73;712;-73
2024/02/18 00:03:12;;;;;;;;;;;18.30;47.00;;;;;;1594395;73;675;-71
2024/02/18 00:05:14;;;;;;;;;;;18.40;47.00;;;;;;1591288;73;633;-74
2024/02/18 00:07:16;;;;;;;;;;;18.30;47.00;;;;;;1590648;73;667;-75
2024/02/18 00:09:18;;;;;;;;;;;18.30;47.00;;;;;;1592382;73;1129;-73
2024/02/18 00:11:19;;;;;;;;;;;18.40;47.10;;;;;;1593521;73;722;-73
2024/02/18 00:13:21;;;;;;;;;;;18.30;47.00;;;;;;1591466;73;734;-74
2024/02/18 00:15:23;;;;;;;;;;;18.30;47.00;;;;;;1591443;73;715;-74
2024/02/18 00:17:25;;;;;;;;;;;18.40;47.00;;;;;;1594136;73;1931;-74
2024/02/18 00:19:27;;;;;;;;;;;18.40;47.00;;;;;;1593533;73;1170;-77
2024/02/18 00:21:29;;;;;;;;;;;18.40;47.00;;;;;;1596240;73;755;-75
2024/02/18 00:23:31;;;;;;;;;;;18.30;47.00;;;;;;1593280;73;610;-74
2024/02/18 00:25:33;;;;;;;;;;;18.30;47.00;;;;;;1591408;73;725;-76
2024/02/18 00:27:34;;;;;;;;;;;18.30;47.00;;;;;;1591289;73;681;-72
2024/02/18 00:29:36;;;;;;;;;;;18.40;47.00;;;;;;1592930;73;1097;-73
2024/02/18 00:31:38;;;;;;;;;;;18.40;47.00;;;;;;1593049;73;1460;-74
2024/02/18 00:33:40;;;;;;;;;;;18.40;47.10;;;;;;1589560;73;723;-73
2024/02/18 00:35:42;;;;;;;;;;;18.40;47.00;;;;;;1590547;73;731;-75
2024/02/18 00:37:44;;;;;;;;;;;18.30;47.00;;;;;;1592169;73;1970;-74
2024/02/18 00:39:46;;;;;;;;;;;18.30;47.00;;;;;;1593771;73;1101;-75
2024/02/18 00:41:48;;;;;;;;;;;18.30;47.00;;;;;;1595611;73;625;-74
2024/02/18 00:43:49;;;;;;;;;;;18.30;47.00;;;;;;1588012;73;646;-75
2024/02/18 00:45:51;;;;;;;;;;;18.30;47.00;;;;;;1590222;73;710;-75
2024/02/18 00:47:53;;;;;;;;;;;18.40;47.00;;;;;;1593478;73;781;-75
2024/02/18 00:49:55;;;;;;;;;;;18.30;47.00;;;;;;1592478;73;1128;-73
2024/02/18 00:51:57;;;;;;;;;;;18.40;47.00;;;;;;1594587;73;626;-72
2024/02/18 00:53:59;;;;;;;;;;;18.40;47.00;;;;;;1591774;73;584;-75
2024/02/18 00:56:01;;;;;;;;;;;18.40;47.00;;;;;;1590888;73;1959;-75
2024/02/18 00:58:02;;;;;;;;;;;18.40;47.00;;;;;;1591158;73;658;-74
2024/02/18 01:00:05;;;;;;;;;;;18.30;47.00;;;;;;1592733;73;1095;-75
2024/02/18 01:02:07;;;;;;;;;;;18.40;47.00;;;;;;1591824;73;680;-75
2024/02/18 01:04:10;;;;;;;;;;;18.40;47.00;;;;;;1592406;73;626;-73
2024/02/18 01:06:12;;;;;;;;;;;18.40;47.00;;;;;;1591902;73;688;-75
2024/02/18 01:08:14;;;;;;;;;;;18.40;47.00;;;;;;1590769;73;601;-75
2024/02/18 01:10:16;;;;;;;;;;;18.30;47.00;;;;;;1593330;73;1136;-74
2024/02/18 01:12:18;;;;;;;;;;;18.30;47.00;;;;;;1592295;73;628;-74
2024/02/18 01:14:20;;;;;;;;;;;18.40;47.00;;;;;;1594558;73;643;-75
2024/02/18 01:16:22;;;;;;;;;;;18.40;46.90;;;;;;1593239;73;1934;-77
2024/02/18 01:18:24;;;;;;;;;;;18.40;46.90;;;;;;1593262;73;1182;-72
2024/02/18 01:20:26;;;;;;;;;;;18.40;46.90;;;;;;1590483;73;709;-74
2024/02/18 01:22:27;;;;;;;;;;;18.40;47.00;;;;;;1592342;73;643;-75
2024/02/18 01:24:29;;;;;;;;;;;18.30;47.00;;;;;;1591743;73;628;-75
2024/02/18 01:26:31;;;;;;;;;;;18.40;47.00;;;;;;1592711;73;715;-74
2024/02/18 01:28:33;;;;;;;;;;;18.40;46.90;;;;;;1592854;73;1524;-75
2024/02/18 01:30:35;;;;;;;;;;;18.40;46.90;;;;;;1590604;73;663;-75
2024/02/18 01:32:37;;;;;;;;;;;18.40;46.90;;;;;;1594113;73;676;-76
2024/02/18 01:34:39;;;;;;;;;;;18.40;46.90;;;;;;1592658;73;682;-73
2024/02/18 01:36:41;;;;;;;;;;;18.40;46.90;;;;;;1592488;73;1944;-74
2024/02/18 01:38:42;;;;;;;;;;;18.40;46.90;;;;;;1595254;73;1119;-72
2024/02/18 01:40:44;;;;;;;;;;;18.40;47.00;;;;;;1589244;73;657;-72
2024/02/18 01:42:46;;;;;;;;;;;18.30;46.90;;;;;;1592516;73;733;-75
2024/02/18 01:44:48;;;;;;;;;;;18.30;46.90;;;;;;1595725;73;579;-74
2024/02/18 01:46:50;;;;;;;;;;;18.40;46.90;;;;;;1592543;73;683;-74
2024/02/18 01:48:52;;;;;;;;;;;18.40;46.90;;;;;;1592783;73;1118;-74
2024/02/18 01:50:54;;;;;;;;;;;18.40;46.80;;;;;;1593180;73;670;-74
2024/02/18 01:52:56;;;;;;;;;;;18.30;46.90;;;;;;1593060;73;732;-75
2024/02/18 01:54:58;;;;;;;;;;;18.40;46.90;;;;;;1592904;73;639;-74
2024/02/18 01:57:03;;;;;;;;;;;18.40;46.80;;;;;;1590856;73;1945;-75
2024/02/18 01:59:05;;;;;;;;;;;18.30;46.90;;;;;;1592366;73;1093;-75
2024/02/18 02:01:07;;;;;;;;;;;18.40;46.90;;;;;;1590616;73;668;-74
2024/02/18 02:03:09;;;;;;;;;;;18.40;46.90;;;;;;1591186;73;746;-77
2024/02/18 02:05:12;;;;;;;;;;;18.30;46.90;;;;;;1592152;73;675;-74
2024/02/18 02:07:14;;;;;;;;;;;18.40;46.90;;;;;;1590857;73;750;-72
2024/02/18 02:09:16;;;;;;;;;;;18.30;46.90;;;;;;1590843;73;1156;-74
2024/02/18 02:11:18;;;;;;;;;;;18.40;46.90;;;;;;1593551;73;860;-73
2024/02/18 02:13:20;;;;;;;;;;;18.30;46.90;;;;;;1594292;73;718;-74
2024/02/18 02:15:22;;;;;;;;;;;18.40;46.80;;;;;;1596347;73;795;-74
2024/02/18 02:17:24;;;;;;;;;;;18.30;46.90;;;;;;1588906;73;1946;-74
2024/02/18 02:19:26;;;;;;;;;;;18.30;46.80;;;;;;1590018;73;1144;-74
2024/02/18 02:21:27;;;;;;;;;;;18.40;46.90;;;;;;1592324;73;709;-73
2024/02/18 02:23:31;;;;;;;;;;;18.30;46.80;;;;;;1592939;73;659;-76
2024/02/18 02:25:33;;;;;;;;;;;18.40;46.80;;;;;;1593135;73;1462;-74
2024/02/18 02:27:35;;;;;;;;;;;18.40;46.80;;;;;;1590483;73;676;-72
2024/02/18 02:29:37;;;;;;;;;;;18.40;46.80;;;;;;1592373;73;1088;-75
2024/02/18 02:31:40;;;;;;;;;;;18.30;46.80;;;;;;1591797;73;537;-73
2024/02/18 02:33:43;;;;;;;;;;;18.40;46.80;;;;;;1592526;73;716;-74
2024/02/18 02:35:46;;;;;;;;;;;18.40;46.80;;;;;;1590262;73;681;-71
2024/02/18 02:37:48;;;;;;;;;;;18.40;46.90;;;;;;1590048;73;1926;-73
2024/02/18 02:39:54;;;;;;;;;;;18.40;46.90;;;;;;1591192;73;1097;-77
2024/02/18 02:41:55;;;;;;;;;;;18.40;46.90;;;;;;1592604;73;1762;-72
2024/02/18 02:43:57;;;;;;;;;;;18.40;46.90;;;;;;1594430;73;723;-75
2024/02/18 02:45:59;;;;;;;;;;;18.40;46.90;;;;;;1590651;73;624;-74
2024/02/18 02:48:01;;;;;;;;;;;18.40;46.90;;;;;;1590340;73;664;-75
2024/02/18 02:50:03;;;;;;;;;;;18.30;46.90;;;;;;1592590;73;1129;-75
2024/02/18 02:52:05;;;;;;;;;;;18.40;46.90;;;;;;1593241;73;733;-76
2024/02/18 02:54:07;;;;;;;;;;;18.40;46.90;;;;;;1592957;73;665;-73
2024/02/18 02:56:09;;;;;;;;;;;18.40;46.80;;;;;;1592204;73;676;-72
2024/02/18 02:58:10;;;;;;;;;;;18.40;46.80;;;;;;1593351;73;1926;-74
2024/02/18 03:00:12;;;;;;;;;;;18.40;46.90;;;;;;1589782;73;1173;-73
2024/02/18 03:02:14;;;;;;;;;;;18.40;46.80;;;;;;1588201;73;596;-75
2024/02/18 03:04:16;;;;;;;;;;;18.30;46.90;;;;;;1593384;73;678;-72
2024/02/18 03:06:18;;;;;;;;;;;18.40;46.90;;;;;;1601510;73;656;-75
2024/02/18 03:08:20;;;;;;;;;;;18.30;46.80;;;;;;1593830;73;1153;-77
2024/02/18 03:10:22;;;;;;;;;;;18.30;46.80;;;;;;1592663;73;693;-74
2024/02/18 03:12:24;;;;;;;;;;;18.40;46.80;;;;;;1592572;73;617;-74
2024/02/18 03:14:25;;;;;;;;;;;18.30;46.80;;;;;;1593963;73;732;-75
2024/02/18 03:16:27;;;;;;;;;;;18.30;46.80;;;;;;1592968;73;707;-75
2024/02/18 03:18:29;;;;;;;;;;;18.40;46.80;;;;;;1593116;73;1944;-74
2024/02/18 03:20:32;;;;;;;;;;;18.30;46.80;;;;;;1592766;73;1520;-76
2024/02/18 03:22:34;;;;;;;;;;;18.30;46.80;;;;;;1593259;73;708;-73
2024/02/18 03:24:37;;;;;;;;;;;18.30;46.80;;;;;;1596171;73;601;-70
2024/02/18 03:26:40;;;;;;;;;;;18.40;46.80;;;;;;1589424;73;653;-74
2024/02/18 03:28:42;;;;;;;;;;;18.30;46.80;;;;;;1588921;73;1093;-73
2024/02/18 03:30:50;;;;;;;;;;;18.30;46.80;;;;;;1588591;73;677;-73
2024/02/18 03:32:47;;;;;;;;;;;18.40;46.80;;;;;;1589963;73;1476;-74
2024/02/18 03:34:49;;;;;;;;;;;18.40;46.80;;;;;;1590617;73;751;-76
2024/02/18 03:36:51;;;;;;;;;;;18.40;46.80;;;;;;1591365;73;737;-75
2024/02/18 03:38:53;;;;;;;;;;;18.40;46.80;;;;;;1592413;73;1949;-75
2024/02/18 03:40:55;;;;;;;;;;;18.40;46.80;;;;;;1591516;73;578;-74
2024/02/18 03:42:57;;;;;;;;;;;18.40;46.90;;;;;;1591764;73;657;-74
2024/02/18 03:44:58;;;;;;;;;;;18.40;46.80;;;;;;1593067;73;635;-74
2024/02/18 03:47:01;;;;;;;;;;;18.40;46.90;;;;;;1592940;73;665;-74
2024/02/18 03:49:02;;;;;;;;;;;18.40;46.80;;;;;;1592543;73;1127;-74
2024/02/18 03:51:04;;;;;;;;;;;18.30;46.80;;;;;;1590549;73;615;-72
2024/02/18 03:53:06;;;;;;;;;;;18.40;46.80;;;;;;1591668;73;628;-75
2024/02/18 03:55:08;;;;;;;;;;;18.40;46.80;;;;;;1592577;73;679;-77
2024/02/18 03:57:10;;;;;;;;;;;18.40;46.80;;;;;;1589421;73;1935;-74
2024/02/18 03:59:15;;;;;;;;;;;18.30;46.80;;;;;;1587885;73;1130;-74
2024/02/18 04:01:16;;;;;;;;;;;18.40;46.80;;;;;;1592713;73;686;-74
2024/02/18 04:03:18;;;;;;;;;;;18.40;46.80;;;;;;1591901;73;640;-73
2024/02/18 04:05:20;;;;;;;;;;;18.40;46.80;;;;;;1592550;73;657;-73
2024/02/18 04:07:22;;;;;;;;;;;18.40;46.80;;;;;;1591445;73;600;-75
2024/02/18 04:09:24;;;;;;;;;;;18.40;46.80;;;;;;1591007;73;1083;-77
2024/02/18 04:11:26;;;;;;;;;;;18.40;46.80;;;;;;1592072;73;749;-73
2024/02/18 04:13:28;;;;;;;;;;;18.30;46.80;;;;;;1593125;73;631;-74
2024/02/18 04:15:30;;;;;;;;;;;18.40;46.80;;;;;;1593429;73;653;-74
2024/02/18 04:17:31;;;;;;;;;;;18.40;46.80;;;;;;1591501;73;1929;-75
2024/02/18 04:19:33;;;;;;;;;;;18.40;46.80;;;;;;1598637;73;1185;-73
2024/02/18 04:21:35;;;;;;;;;;;18.40;46.80;;;;;;1593984;73;701;-75
2024/02/18 04:23:37;;;;;;;;;;;18.40;46.80;;;;;;1591457;72;737;-76
2024/02/18 04:25:39;;;;;;;;;;;18.30;46.80;;;;;;1591511;73;601;-73
2024/02/18 04:27:41;;;;;;;;;;;18.40;46.80;;;;;;1592914;73;671;-75
2024/02/18 04:29:43;;;;;;;;;;;18.30;46.80;;;;;;1593148;73;1139;-74
2024/02/18 04:31:45;;;;;;;;;;;18.40;46.80;;;;;;1588269;73;606;-74
2024/02/18 04:33:47;;;;;;;;;;;18.40;46.70;;;;;;1587937;73;698;-74
2024/02/18 04:35:48;;;;;;;;;;;18.40;46.80;;;;;;1592359;73;642;-74
2024/02/18 04:37:50;;;;;;;;;;;18.40;46.70;;;;;;1591323;73;1932;-73
2024/02/18 04:39:52;;;;;;;;;;;18.40;46.70;;;;;;1593289;73;1079;-76
2024/02/18 04:41:54;;;;;;;;;;;18.40;46.80;;;;;;1593406;73;636;-72
2024/02/18 04:43:56;;;;;;;;;;;18.40;46.70;;;;;;1589811;73;665;-71
2024/02/18 04:45:58;;;;;;;;;;;18.40;46.70;;;;;;1593054;73;659;-74
2024/02/18 04:48:00;;;;;;;;;;;18.30;46.70;;;;;;1591118;73;570;-75
2024/02/18 04:50:04;;;;;;;;;;;18.40;46.70;;;;;;1590864;73;1129;-74
2024/02/18 04:52:05;;;;;;;;;;;18.40;46.70;;;;;;1591008;73;1379;-75
2024/02/18 04:54:07;;;;;;;;;;;18.40;46.70;;;;;;1591328;73;716;-73
2024/02/18 04:56:09;;;;;;;;;;;18.30;46.70;;;;;;1590579;73;738;-74
2024/02/18 04:58:11;;;;;;;;;;;18.40;46.80;;;;;;1592564;73;1921;-73
2024/02/18 05:00:13;;;;;;;;;;;18.40;46.70;;;;;;1600240;73;1100;-74
2024/02/18 05:02:15;;;;;;;;;;;18.40;46.80;;;;;;1592480;73;646;-74
2024/02/18 05:04:17;;;;;;;;;;;18.40;46.80;;;;;;1591726;73;845;-77
2024/02/18 05:06:19;;;;;;;;;;;18.30;46.70;;;;;;1589920;73;628;-77
2024/02/18 05:08:21;;;;;;;;;;;18.40;46.70;;;;;;1591225;73;1141;-72
2024/02/18 05:10:23;;;;;;;;;;;18.40;46.70;;;;;;1592378;73;780;-74
2024/02/18 05:12:24;;;;;;;;;;;18.40;46.80;;;;;;1597138;73;790;-75
2024/02/18 05:14:26;;;;;;;;;;;18.40;46.70;;;;;;1590094;73;1504;-73
2024/02/18 05:16:28;;;;;;;;;;;18.40;46.70;;;;;;1592762;73;674;-75
2024/02/18 05:18:30;;;;;;;;;;;18.40;46.70;;;;;;1590816;73;1934;-74
2024/02/18 05:20:32;;;;;;;;;;;18.30;46.70;;;;;;1591213;73;665;-73
2024/02/18 05:22:34;;;;;;;;;;;18.40;46.70;;;;;;1599320;73;620;-75
2024/02/18 05:24:36;;;;;;;;;;;18.40;46.80;;;;;;1592558;73;669;-74
2024/02/18 05:26:37;;;;;;;;;;;18.40;46.70;;;;;;1591679;73;570;-73
2024/02/18 05:28:39;;;;;;;;;;;18.40;46.70;;;;;;1591496;73;1126;-74
2024/02/18 05:30:41;;;;;;;;;;;18.40;46.70;;;;;;1592821;73;694;-75
2024/02/18 05:32:43;;;;;;;;;;;18.40;46.70;;;;;;1595172;73;711;-75
2024/02/18 05:34:45;;;;;;;;;;;18.40;46.70;;;;;;1592893;73;772;-74
2024/02/18 05:36:47;;;;;;;;;;;18.30;46.70;;;;;;1591173;73;644;-75
2024/02/18 05:38:49;;;;;;;;;;;18.40;46.70;;;;;;1591184;73;1940;-73
2024/02/18 05:40:51;;;;;;;;;;;18.40;46.70;;;;;;1591684;73;657;-75
2024/02/18 05:42:53;;;;;;;;;;;18.30;46.70;;;;;;1596542;73;666;-74
2024/02/18 05:44:54;;;;;;;;;;;18.40;46.60;;;;;;1593420;73;684;-74
2024/02/18 05:46:56;;;;;;;;;;;18.40;46.60;;;;;;1593294;73;658;-76
2024/02/18 05:48:58;;;;;;;;;;;18.40;46.60;;;;;;1592769;73;1128;-77
2024/02/18 05:51:00;;;;;;;;;;;18.40;46.60;;;;;;1590905;73;671;-73
2024/02/18 05:53:02;;;;;;;;;;;18.40;46.60;;;;;;1595362;73;635;-74
2024/02/18 05:55:04;;;;;;;;;;;18.40;46.60;;;;;;1593320;73;707;-72
2024/02/18 05:57:06;;;;;;;;;;;18.40;46.60;;;;;;1591516;73;604;-74
2024/02/18 05:59:08;;;;;;;;;;;18.40;46.60;;;;;;1593300;73;1898;-74
2024/02/18 06:01:10;;;;;;;;;;;18.30;46.60;;;;;;1592962;73;704;-74
2024/02/18 06:03:12;;;;;;;;;;;18.30;46.60;;;;;;1595089;73;673;-74
2024/02/18 06:05:17;;;;;;;;;;;18.40;46.60;;;;;;1593221;73;610;-77
2024/02/18 06:07:18;;;;;;;;;;;18.40;46.50;;;;;;1591121;73;1258;-74
2024/02/18 06:09:20;;;;;;;;;;;18.30;46.60;;;;;;1592348;73;1570;-71
2024/02/18 06:11:22;;;;;;;;;;;18.40;46.60;;;;;;1590602;73;638;-75
2024/02/18 06:13:23;;;;;;;;;;;18.30;46.60;;;;;;1599263;73;688;-74
2024/02/18 06:15:25;;;;;;;;;;;18.40;46.60;;;;;;1592099;73;694;-75
2024/02/18 06:17:27;;;;;;;;;;;18.40;46.60;;;;;;1595234;73;743;-76
2024/02/18 06:19:29;;;;;;;;;;;18.30;46.60;;;;;;1593362;73;1941;-74
2024/02/18 06:21:31;;;;;;;;;;;18.30;46.50;;;;;;1591933;73;662;-72
2024/02/18 06:23:33;;;;;;;;;;;18.40;46.50;;;;;;1603172;73;520;-73
2024/02/18 06:25:39;;;;;;;;;;;18.30;46.60;;;;;;1591873;73;672;-72
2024/02/18 06:27:38;;;;;;;;;;;18.40;46.60;;;;;;1592173;73;1544;-77
2024/02/18 06:29:40;;;;;;;;;;;18.40;46.60;;;;;;1592579;73;1146;-73
2024/02/18 06:31:42;;;;;;;;;;;18.30;46.50;;;;;;1588245;73;694;-72
2024/02/18 06:33:47;;;;;;;;;;;18.40;46.50;;;;;;1594344;73;664;-75
2024/02/18 06:35:48;;;;;;;;;;;18.30;46.60;;;;;;1591157;73;666;-75
2024/02/18 06:37:50;;;;;;;;;;;18.30;46.50;;;;;;1591564;73;776;-75
2024/02/18 06:39:52;;;;;;;;;;;18.30;46.50;;;;;;1591103;73;1905;-71
2024/02/18 06:41:54;;;;;;;;;;;18.30;46.50;;;;;;1592357;73;607;-73
2024/02/18 06:43:56;;;;;;;;;;;18.40;46.50;;;;;;1595083;73;655;-73
2024/02/18 06:45:58;;;;;;;;;;;18.30;46.60;;;;;;1590720;73;668;-76
2024/02/18 06:48:00;;;;;;;;;;;18.40;46.60;;;;;;1588267;73;697;-72
2024/02/18 06:50:03;;;;;;;;;;;18.40;46.50;;;;;;1590802;73;1076;-73
2024/02/18 06:52:05;;;;;;;;;;;18.40;46.60;;;;;;1594327;73;670;-75
2024/02/18 06:54:07;;;;;;;;;;;18.40;46.50;;;;;;1597201;73;641;-69
2024/02/18 06:56:09;;;;;;;;;;;18.30;46.50;;;;;;1589418;73;672;-74
2024/02/18 06:58:14;;;;;;;;;;;18.30;46.50;;;;;;1590792;73;1946;-74
2024/02/18 07:00:16;;;;;;;;;;;18.40;46.50;;;;;;1594485;73;1661;-71
2024/02/18 07:02:18;;;;;;;;;;;18.30;46.50;;;;;;1592082;73;753;-72
2024/02/18 07:04:20;;;;;;;;;;;18.40;46.50;;;;;;1593431;73;570;-74
2024/02/18 07:06:22;;;;;;;;;;;18.30;46.50;;;;;;1596608;73;1459;-71
2024/02/18 07:08:24;;;;;;;;;;;18.40;46.50;;;;;;1589607;73;1174;-75
2024/02/18 07:10:28;;;;;;;;;;;18.40;46.50;;;;;;1588439;73;589;-75
2024/02/18 07:12:29;;;;;;;;;;;18.30;46.50;;;;;;1598350;73;709;-74
2024/02/18 07:14:31;;;;;;;;;;;18.30;46.60;;;;;;1596827;73;848;-75
2024/02/18 07:16:33;;;;;;;;;;;18.30;46.60;;;;;;1589930;73;959;-74
2024/02/18 07:18:35;;;;;;;;;;;18.30;46.50;;;;;;1592808;73;1946;-75
2024/02/18 07:20:37;;;;;;;;;;;18.40;46.50;;;;;;1592921;73;604;-74
2024/02/18 07:22:39;;;;;;;;;;;18.30;46.50;;;;;;1595332;73;838;-75
2024/02/18 07:24:41;;;;;;;;;;;18.40;46.50;;;;;;1595602;73;713;-75
2024/02/18 07:26:43;;;;;;;;;;;18.40;46.50;;;;;;1592958;73;636;-73
2024/02/18 07:28:45;;;;;;;;;;;18.40;46.50;;;;;;1591859;73;1095;-72
2024/02/18 07:30:46;;;;;;;;;;;18.40;46.50;;;;;;1588678;73;749;-75
2024/02/18 07:32:48;;;;;;;;;;;18.30;46.50;;;;;;1596358;73;696;-75
2024/02/18 07:34:50;;;;;;;;;;;18.40;46.50;;;;;;1591230;73;707;-75
2024/02/18 07:36:54;;;;;;;;;;;18.40;46.50;;;;;;1592691;73;670;-72
2024/02/18 07:38:56;;;;;;;;;;;18.40;46.50;;;;;;1592251;73;1938;-71
2024/02/18 07:40:58;;;;;;;;;;;18.40;46.50;;;;;;1589980;73;561;-75
2024/02/18 07:42:59;;;;;;;;;;;18.40;46.50;;;;;;1593797;73;701;-75
2024/02/18 07:45:01;;;;;;;;;;;18.40;46.50;;;;;;1592558;73;753;-73
2024/02/18 07:47:03;;;;;;;;;;;18.30;46.50;;;;;;1593082;73;645;-75
2024/02/18 07:49:06;;;;;;;;;;;18.40;46.50;;;;;;1592460;73;1186;-74
2024/02/18 07:51:09;;;;;;;;;;;18.40;46.50;;;;;;1593163;73;679;-73
2024/02/18 07:53:11;;;;;;;;;;;18.40;46.50;;;;;;1596818;73;704;-75
2024/02/18 07:55:13;;;;;;;;;;;18.30;46.50;;;;;;1589956;73;597;-74
2024/02/18 07:57:15;;;;;;;;;;;18.30;46.40;;;;;;1592057;73;650;-74
2024/02/18 07:59:18;;;;;;;;;;;18.40;46.40;;;;;;1591678;73;1945;-74
2024/02/18 08:01:20;;;;;;;;;;;18.30;46.40;;;;;;1590983;73;721;-74
2024/02/18 08:03:22;;;;;;;;;;;18.40;46.40;;;;;;1592894;73;736;-76
2024/02/18 08:05:23;;;;;;;;;;;18.40;46.40;;;;;;1592478;73;1498;-75
2024/02/18 08:07:25;;;;;;;;;;;18.40;46.40;;;;;;1590496;73;662;-73
2024/02/18 08:09:27;;;;;;;;;;;18.40;46.50;;;;;;1591522;73;1117;-73
2024/02/18 08:11:29;;;;;;;;;;;18.40;46.40;;;;;;1590219;73;799;-73
2024/02/18 08:13:31;;;;;;;;;;;18.40;46.30;;;;;;1594483;73;716;-72
2024/02/18 08:15:33;;;;;;;;;;;18.40;46.40;;;;;;1592048;73;595;-75
2024/02/18 08:17:35;;;;;;;;;;;18.30;46.40;;;;;;1591164;73;569;-73
2024/02/18 08:19:37;;;;;;;;;;;18.40;46.40;;;;;;1592224;73;1918;-73
2024/02/18 08:21:39;;;;;;;;;;;18.30;46.40;;;;;;1592859;73;702;-73
2024/02/18 08:23:41;;;;;;;;;;;18.30;46.40;;;;;;1600170;73;610;-74
2024/02/18 08:25:42;;;;;;;;;;;18.30;46.50;;;;;;1590294;73;585;-74
2024/02/18 08:27:44;;;;;;;;;;;18.30;46.40;;;;;;1591773;73;707;-75
2024/02/18 08:29:46;;;;;;;;;;;18.40;46.40;;;;;;1599481;73;1087;-77
2024/02/18 08:31:49;;;;;;;;;;;18.30;46.40;;;;;;1593448;73;675;-73
2024/02/18 08:33:51;;;;;;;;;;;18.40;46.40;;;;;;1593344;73;622;-73
2024/02/18 08:35:53;;;;;;;;;;;18.30;46.40;;;;;;1592541;73;654;-75
2024/02/18 08:37:54;;;;;;;;;;;18.30;46.50;;;;;;1592121;73;655;-75
2024/02/18 08:39:56;;;;;;;;;;;18.30;46.50;;;;;;1589603;73;1957;-74
2024/02/18 08:41:58;;;;;;;;;;;18.30;46.40;;;;;;1593183;73;574;-74
2024/02/18 08:44:00;;;;;;;;;;;18.40;46.40;;;;;;1596928;73;746;-73
2024/02/18 08:46:02;;;;;;;;;;;18.40;46.30;;;;;;1590704;73;571;-74
2024/02/18 08:48:04;;;;;;;;;;;18.40;46.40;;;;;;1592124;73;653;-74
2024/02/18 08:50:06;;;;;;;;;;;18.40;46.40;;;;;;1591784;73;1085;-72
2024/02/18 08:52:08;;;;;;;;;;;18.40;46.40;;;;;;1594522;73;707;-73
2024/02/18 08:54:10;;;;;;;;;;;18.40;46.50;;;;;;1594192;73;755;-73
2024/02/18 08:56:12;;;;;;;;;;;18.40;46.40;;;;;;1591189;73;667;-72
2024/02/18 08:58:14;;;;;;;;;;;18.40;46.40;;;;;;1592492;73;669;-73
2024/02/18 09:00:17;;;;;;;;;;;18.30;46.40;;;;;;1591457;73;1950;-74
2024/02/18 09:02:19;;;;;;;;;;;18.30;46.50;;;;;;1592453;73;674;-71
2024/02/18 09:04:22;;;;;;;;;;;18.40;46.40;;;;;;1593921;73;626;-76
2024/02/18 09:06:24;;;;;;;;;;;18.40;46.40;;;;;;1591275;73;1481;-74
2024/02/18 09:08:26;;;;;;;;;;;18.40;46.40;;;;;;1592632;73;1126;-75
2024/02/18 09:10:28;;;;;;;;;;;18.40;46.40;;;;;;1591724;73;674;-74
2024/02/18 09:12:30;;;;;;;;;;;18.40;46.40;;;;;;1594413;73;695;-75
2024/02/18 09:14:31;;;;;;;;;;;18.40;46.40;;;;;;1599360;73;708;-75
2024/02/18 09:16:33;;;;;;;;;;;18.40;46.40;;;;;;1590963;73;646;-75
2024/02/18 09:18:35;;;;;;;;;;;18.40;46.40;;;;;;1593039;73;1138;-76
2024/02/18 09:20:37;;;;;;;;;;;18.40;46.40;;;;;;1591180;73;1903;-74
2024/02/18 09:22:39;;;;;;;;;;;18.30;46.40;;;;;;1590538;73;669;-73
2024/02/18 09:24:44;;;;;;;;;;;18.40;46.40;;;;;;1592228;73;704;-73
2024/02/18 09:26:46;;;;;;;;;;;18.40;46.40;;;;;;1591634;73;723;-74
2024/02/18 09:28:48;;;;;;;;;;;18.40;46.40;;;;;;1592830;73;1146;-73
2024/02/18 09:30:50;;;;;;;;;;;18.40;46.40;;;;;;1583386;73;649;-74
2024/02/18 09:32:52;;;;;;;;;;;18.40;46.40;;;;;;1594753;73;722;-75
2024/02/18 09:34:53;;;;;;;;;;;18.40;46.50;;;;;;1591860;73;669;-74
2024/02/18 09:36:55;;;;;;;;;;;18.40;46.40;;;;;;1590799;73;661;-71
2024/02/18 09:38:57;;;;;;;;;;;18.40;46.40;;;;;;1593199;73;1139;-72
2024/02/18 09:41:00;;;;;;;;;;;18.40;46.40;;;;;;1591691;73;1946;-73
2024/02/18 09:43:02;;;;;;;;;;;18.40;46.40;;;;;;1594389;73;689;-73
2024/02/18 09:45:04;;;;;;;;;;;18.30;46.40;;;;;;1594063;73;605;-73
2024/02/18 09:47:06;;;;;;;;;;;18.40;46.40;;;;;;1589053;73;657;-73
2024/02/18 09:49:09;;;;;;;;;;;18.40;46.40;;;;;;1592711;73;1141;-73
2024/02/18 09:51:10;;;;;;;;;;;18.40;46.40;;;;;;1591421;73;705;-75
2024/02/18 09:53:12;;;;;;;;;;;18.40;46.30;;;;;;1597101;73;724;-74
2024/02/18 09:55:14;;;;;;;;;;;18.40;46.40;;;;;;1594695;73;641;-74
2024/02/18 09:57:16;;;;;;;;;;;18.40;46.40;;;;;;1592572;73;538;-75
2024/02/18 09:59:18;;;;;;;;;;;18.40;46.30;;;;;;1591338;73;1939;-73
2024/02/18 10:01:20;;;;;;;;;;;18.40;46.30;;;;;;1590538;73;662;-75
2024/02/18 10:03:22;;;;;;;;;;;18.40;46.40;;;;;;1594506;73;1614;-74
2024/02/18 10:05:24;;;;;;;;;;;18.40;46.30;;;;;;1592088;73;583;-74
2024/02/18 10:07:26;;;;;;;;;;;18.40;46.30;;;;;;1591494;73;601;-75
2024/02/18 10:09:31;;;;;;;;;;;18.40;46.30;;;;;;1592265;73;1118;-74
2024/02/18 10:11:32;;;;;;;;;;;18.50;46.50;;;;;;1591812;73;1590;-73
2024/02/18 10:13:34;;;;;;;;;;;18.40;46.40;;;;;;1592350;73;602;-74
2024/02/18 10:15:36;;;;;;;;;;;18.40;46.40;;;;;;1591807;73;754;-70
2024/02/18 10:17:37;;;;;;;;;;;18.40;46.40;;;;;;1587925;73;645;-71
2024/02/18 10:19:39;;;;;;;;;;;18.30;46.40;;;;;;1592727;73;1933;-73
2024/02/18 10:21:42;;;;;;;;;;;18.40;46.40;;;;;;1591715;73;809;-74
2024/02/18 10:23:44;;;;;;;;;;;18.40;46.40;;;;;;1596639;73;705;-74
2024/02/18 10:25:47;;;;;;;;;;;18.40;46.40;;;;;;1592823;73;571;-75
2024/02/18 10:27:49;;;;;;;;;;;18.40;46.40;;;;;;1588676;73;653;-76
2024/02/18 10:29:51;;;;;;;;;;;18.40;46.40;;;;;;1586197;73;1151;-72
2024/02/18 10:31:53;;;;;;;;;;;18.40;46.40;;;;;;1600390;73;761;-75
2024/02/18 10:33:55;;;;;;;;;;;18.40;46.40;;;;;;1594309;73;678;-75
2024/02/18 10:35:59;;;;;;;;;;;18.40;46.40;;;;;;1592449;73;707;-74
2024/02/18 10:38:02;;;;;;;;;;;18.40;46.40;;;;;;1589079;73;672;-74
2024/02/18 10:40:18;;;;;;;;;;;18.40;46.40;;;;;;1589584;73;1908;-75
2024/02/18 10:42:20;;;;;;;;;;;18.40;46.40;;;;;;1590781;73;1946;-74
2024/02/18 10:44:21;;;;;;;;;;;18.40;46.30;;;;;;1594845;73;650;-74
2024/02/18 10:46:24;;;;;;;;;;;18.40;46.30;;;;;;1561025;74;640;-75
2024/02/18 10:48:26;;;;;;;;;;;18.40;46.30;;;;;;1588704;73;1091;-72
2024/02/18 10:50:28;;;;;;;;;;;18.40;46.40;;;;;;1590487;73;912;-73
2024/02/18 10:52:48;;;;;;;;;;;18.40;46.30;;;;;;1594554;73;584;-75
2024/02/18 10:54:51;;;;;;;;;;;18.40;46.40;;;;;;1591872;73;1383;-74
2024/02/18 10:56:54;;;;;;;;;;;18.40;46.30;;;;;;1567282;73;1768;-75
2024/02/18 10:59:00;;;;;;;;;;;18.40;46.30;;;;;;1588966;73;1396;-75
2024/02/18 11:01:03;;;;;;;;;;;18.40;46.40;;;;;;1591589;73;1930;-73
2024/02/18 11:03:25;;;;;;;;;;;18.40;46.40;;;;;;1593860;73;670;-72
2024/02/18 11:05:34;;;;;;;;;;;18.40;46.30;;;;;;1591013;73;1474;-75
2024/02/18 11:07:33;;;;;;;;;;;18.40;46.30;;;;;;1588930;73;1659;-73
2024/02/18 11:09:35;;;;;;;;;;;18.40;46.30;;;;;;1590618;73;1124;-74
2024/02/18 11:11:37;;;;;;;;;;;18.40;46.30;;;;;;1591812;73;687;-74
2024/02/18 11:13:38;;;;;;;;;;;18.40;46.30;;;;;;1593484;73;571;-74
2024/02/18 11:15:40;;;;;;;;;;;18.40;46.30;;;;;;1591728;73;786;-71
2024/02/18 11:17:42;;;;;;;;;;;18.40;46.30;;;;;;1593021;73;715;-74
2024/02/18 11:19:44;;;;;;;;;;;18.40;46.30;;;;;;1593145;73;1947;-73
2024/02/18 11:21:47;;;;;;;;;;;18.30;46.30;;;;;;1593145;73;609;-72
2024/02/18 11:23:53;;;;;;;;;;;18.40;46.30;;;;;;1593905;73;632;-73
2024/02/18 11:25:55;;;;;;;;;;;18.40;46.30;;;;;;1591446;73;686;-73
2024/02/18 11:27:57;;;;;;;;;;;18.40;46.40;;;;;;1588571;73;657;-77
2024/02/18 11:30:02;;;;;;;;;;;18.40;46.40;;;;;;1591255;73;1159;-76
2024/02/18 11:32:04;;;;;;;;;;;18.40;46.30;;;;;;1590911;73;586;-74
2024/02/18 11:34:06;;;;;;;;;;;18.40;46.30;;;;;;1593043;73;685;-74
2024/02/18 11:36:14;;;;;;;;;;;18.40;46.40;;;;;;1590206;73;676;-74
2024/02/18 11:38:17;;;;;;;;;;;18.40;46.30;;;;;;1593414;73;667;-74
2024/02/18 11:40:19;;;;;;;;;;;18.40;46.30;;;;;;1592925;73;1948;-72
2024/02/18 11:42:21;;;;;;;;;;;18.40;46.30;;;;;;1593130;73;684;-72
2024/02/18 11:44:23;;;;;;;;;;;18.40;46.30;;;;;;1594086;73;755;-73
2024/02/18 11:46:25;;;;;;;;;;;18.40;46.30;;;;;;1587272;73;754;-72
2024/02/18 11:48:27;;;;;;;;;;;18.40;46.30;;;;;;1592584;73;1202;-75
2024/02/18 11:50:29;;;;;;;;;;;18.40;46.30;;;;;;1591027;73;662;-75
2024/02/18 11:52:31;;;;;;;;;;;18.40;46.30;;;;;;1592901;73;655;-75
2024/02/18 11:54:33;;;;;;;;;;;18.40;46.30;;;;;;1595150;73;1568;-75
2024/02/18 11:56:35;;;;;;;;;;;18.40;46.30;;;;;;1589760;73;688;-76
2024/02/18 11:58:37;;;;;;;;;;;18.40;46.30;;;;;;1589185;73;1071;-75
2024/02/18 12:00:39;;;;;;;;;;;18.40;46.30;;;;;;1591468;73;1905;-76
2024/02/18 12:02:45;;;;;;;;;;;18.40;46.30;;;;;;1592364;73;688;-73
2024/02/18 12:04:45;;;;;;;;;;;18.40;46.30;;;;;;1587695;73;1680;-73
2024/02/18 12:06:47;;;;;;;;;;;18.40;46.30;;;;;;1590262;73;560;-72
2024/02/18 12:08:49;;;;;;;;;;;18.40;46.30;;;;;;1592706;73;1098;-74